createdAt,value
2019-03-02T00:02:45.785Z,34.80
2019-03-02T00:07:49.527Z,34.90
2019-03-02T00:12:53.287Z,35.00
2019-03-02T00:17:59.975Z,35.00
2019-03-02T00:23:02.459Z,34.90
2019-03-02T00:28:06.155Z,34.80
2019-03-02T00:33:11.456Z,34.80
2019-03-02T00:38:15.568Z,34.80
2019-03-02T00:43:19.365Z,34.70
2019-03-02T00:48:23.278Z,34.70
2019-03-02T00:53:31.968Z,34.50
2019-03-02T00:58:34.107Z,34.30
2019-03-02T01:03:37.786Z,34.60
2019-03-02T01:08:41.597Z,34.60
2019-03-02T01:13:47.260Z,34.40
2019-03-02T01:18:50.989Z,34.40
2019-03-02T01:23:56.407Z,34.40
2019-03-02T01:29:01.752Z,34.20
2019-03-02T01:34:08.317Z,34.20
2019-03-02T01:39:11.008Z,34.10
2019-03-02T01:44:16.354Z,34.10
2019-03-02T01:49:20.192Z,34.00
2019-03-02T01:54:23.929Z,34.10
2019-03-02T01:59:27.564Z,34.00
2019-03-02T02:04:31.188Z,34.00
2019-03-02T02:09:40.358Z,34.00
2019-03-02T02:14:43.372Z,34.00
2019-03-02T02:19:47.052Z,34.00
2019-03-02T02:24:50.998Z,34.00
2019-03-02T02:29:54.662Z,34.00
2019-03-02T02:35:01.058Z,34.00
2019-03-02T02:40:08.134Z,33.90
2019-03-02T02:45:15.182Z,33.90
2019-03-02T02:50:18.299Z,33.90
2019-03-02T02:55:23.641Z,34.00
2019-03-02T03:00:27.381Z,33.90
2019-03-02T03:05:31.124Z,33.90
2019-03-02T03:10:37.087Z,33.90
2019-03-02T03:15:49.020Z,33.90
2019-03-02T03:20:52.790Z,33.90
2019-03-02T03:25:58.502Z,33.90
2019-03-02T03:31:01.926Z,34.50
2019-03-02T03:36:05.665Z,33.90
2019-03-02T03:41:09.378Z,33.90
2019-03-02T03:46:18.122Z,33.80
2019-03-02T03:51:18.414Z,33.90
2019-03-02T03:56:22.459Z,33.90
2019-03-02T04:01:26.236Z,33.80
2019-03-02T04:06:29.924Z,33.80
2019-03-02T04:11:37.753Z,33.80
2019-03-02T04:16:41.212Z,33.90
2019-03-02T04:21:46.618Z,33.80
2019-03-02T04:26:50.365Z,33.80
2019-03-02T04:31:54.035Z,33.80
2019-03-02T04:36:57.700Z,33.80
2019-03-02T04:42:01.328Z,33.90
2019-03-02T04:47:05.000Z,33.90
2019-03-02T04:52:11.665Z,33.80
2019-03-02T04:57:14.126Z,33.80
2019-03-02T05:02:19.655Z,33.80
2019-03-02T05:07:26.614Z,33.80
2019-03-02T05:12:28.611Z,33.80
2019-03-02T05:17:32.277Z,33.80
2019-03-02T05:22:35.928Z,33.80
2019-03-02T05:27:39.598Z,33.80
2019-03-02T05:32:43.279Z,33.80
2019-03-02T05:37:47.063Z,33.90
2019-03-02T05:42:52.519Z,34.10
2019-03-02T05:47:56.238Z,34.30
2019-03-02T05:52:59.953Z,34.40
2019-03-02T05:58:03.609Z,34.70
2019-03-02T06:03:07.271Z,34.80
2019-03-02T06:08:10.927Z,35.00
2019-03-02T06:13:14.673Z,35.90
2019-03-02T06:18:18.375Z,35.40
2019-03-02T06:23:22.050Z,35.60
2019-03-02T06:28:25.803Z,35.80
2019-03-02T06:33:36.752Z,35.90
2019-03-02T06:38:40.757Z,35.90
2019-03-02T06:43:44.641Z,35.90
2019-03-02T06:48:48.617Z,35.80
2019-03-02T06:53:52.283Z,35.90
2019-03-02T06:58:56.110Z,35.80
2019-03-02T07:03:59.777Z,35.70
2019-03-02T07:09:05.930Z,35.70
2019-03-02T07:14:10.409Z,35.60
2019-03-02T07:19:35.390Z,35.60
2019-03-02T07:24:39.106Z,35.50
2019-03-02T07:29:42.759Z,35.50
2019-03-02T07:34:46.386Z,35.30
2019-03-02T07:39:49.993Z,35.30
2019-03-02T07:44:55.002Z,35.30
2019-03-02T07:49:59.050Z,35.30
2019-03-02T07:55:02.969Z,35.20
2019-03-02T08:00:08.820Z,35.20
2019-03-02T08:05:14.705Z,35.10
2019-03-02T08:10:18.128Z,35.00
2019-03-02T08:15:24.477Z,34.90
2019-03-02T08:20:28.708Z,35.00
2019-03-02T08:25:32.802Z,34.90
2019-03-02T08:30:55.793Z,34.90
2019-03-02T08:35:59.568Z,34.80
2019-03-02T08:41:03.223Z,34.80
2019-03-02T08:46:07.471Z,34.80
2019-03-02T08:51:12.431Z,34.70
2019-03-02T08:56:16.124Z,34.70
2019-03-02T09:01:19.878Z,34.60
2019-03-02T09:06:23.646Z,34.60
2019-03-02T09:11:27.320Z,34.50
2019-03-02T09:16:31.046Z,34.50
2019-03-02T09:21:34.757Z,34.40
2019-03-02T09:26:38.808Z,34.40
2019-03-02T09:31:43.532Z,34.30
2019-03-02T09:36:47.266Z,34.20
2019-03-02T09:41:50.974Z,34.10
2019-03-02T09:46:54.746Z,34.00
2019-03-02T09:51:58.514Z,34.00
2019-03-02T09:57:02.996Z,34.00
2019-03-02T10:02:06.762Z,33.90
2019-03-02T10:07:10.468Z,33.90
2019-03-02T10:12:15.151Z,33.90
2019-03-02T10:17:19.148Z,33.90
2019-03-02T10:22:23.335Z,33.80
2019-03-02T10:27:27.356Z,33.90
2019-03-02T10:32:31.031Z,33.80
2019-03-02T10:37:35.063Z,33.80
2019-03-02T10:42:39.465Z,33.80
2019-03-02T10:47:43.630Z,33.70
2019-03-02T10:52:48.969Z,33.70
2019-03-02T10:57:53.196Z,33.70
2019-03-02T11:02:57.958Z,33.70
2019-03-02T11:08:39.609Z,33.60
2019-03-02T11:14:05.223Z,33.50
2019-03-02T11:19:15.352Z,33.50
2019-03-02T11:24:38.208Z,33.40
2019-03-02T11:30:01.066Z,33.40
2019-03-02T11:35:11.952Z,33.40
2019-03-02T11:40:37.630Z,33.40
2019-03-02T11:45:56.536Z,33.40
2019-03-02T11:51:10.267Z,33.30
2019-03-02T11:56:39.060Z,33.30
2019-03-02T12:01:51.184Z,33.20
2019-03-02T12:07:23.262Z,33.20
2019-03-02T12:12:37.324Z,33.20
2019-03-02T12:18:03.306Z,33.10
2019-03-02T12:23:24.761Z,33.10
2019-03-02T12:29:01.103Z,33.00
2019-03-02T12:34:30.940Z,32.90
2019-03-02T12:39:56.651Z,32.80
2019-03-02T12:45:20.469Z,32.90
2019-03-02T12:50:43.133Z,32.80
2019-03-02T12:56:06.027Z,32.80
2019-03-02T13:01:20.747Z,32.80
2019-03-02T13:06:54.139Z,32.70
2019-03-02T13:12:07.124Z,32.70
2019-03-02T13:17:39.676Z,32.80
2019-03-02T13:22:56.989Z,32.70
2019-03-02T13:28:18.027Z,32.70
2019-03-02T13:33:41.914Z,32.70
2019-03-02T13:39:06.395Z,32.70
2019-03-02T13:44:25.269Z,32.60
2019-03-02T13:49:43.086Z,32.60
2019-03-02T13:54:52.643Z,32.50
2019-03-02T14:00:34.013Z,32.50
2019-03-02T14:05:55.918Z,32.50
2019-03-02T14:11:21.951Z,32.50
2019-03-02T14:16:55.056Z,32.40
2019-03-02T14:22:14.846Z,32.30
2019-03-02T14:27:27.041Z,32.20
2019-03-02T14:32:54.009Z,32.30
2019-03-02T14:38:08.321Z,32.20
2019-03-02T14:43:32.046Z,32.20
2019-03-02T14:48:45.972Z,32.30
2019-03-02T14:54:09.900Z,32.20
2019-03-02T14:59:31.832Z,32.20
2019-03-02T15:04:53.420Z,32.20
2019-03-02T15:10:15.746Z,32.10
2019-03-02T15:15:41.334Z,32.00
2019-03-02T15:21:16.400Z,32.00
2019-03-02T15:26:26.832Z,31.90
2019-03-02T15:31:48.318Z,31.90
2019-03-02T15:37:17.193Z,31.90
2019-03-02T15:42:44.265Z,31.80
2019-03-02T15:47:55.504Z,31.90
2019-03-02T15:53:20.418Z,31.90
2019-03-02T15:58:41.538Z,31.80
2019-03-02T16:03:57.206Z,31.80
2019-03-02T16:09:31.964Z,31.70
2019-03-02T16:14:42.274Z,31.80
2019-03-02T16:20:18.223Z,31.70
2019-03-02T16:25:35.970Z,31.70
2019-03-02T16:30:50.858Z,31.70
2019-03-02T16:36:03.674Z,31.70
2019-03-02T16:41:35.202Z,31.60
2019-03-02T16:46:54.814Z,31.60
2019-03-02T16:52:19.588Z,31.50
2019-03-02T16:57:34.610Z,31.50
2019-03-02T17:02:45.197Z,31.50
2019-03-02T17:07:59.886Z,31.50
2019-03-02T17:13:32.147Z,31.40
2019-03-02T17:18:56.173Z,31.40
2019-03-02T17:24:19.934Z,31.40
2019-03-02T17:29:35.003Z,31.30
2019-03-02T17:35:00.919Z,31.20
2019-03-02T17:40:24.222Z,31.20
2019-03-02T17:45:52.190Z,31.10
2019-03-02T17:51:20.952Z,31.10
2019-03-02T17:56:32.001Z,31.10
2019-03-02T18:01:54.519Z,31.00
2019-03-02T18:07:17.470Z,31.00
2019-03-02T18:12:37.305Z,31.10
2019-03-02T18:17:51.996Z,31.10
2019-03-02T18:22:58.184Z,31.10
2019-03-02T18:28:02.031Z,31.10
2019-03-02T18:33:27.771Z,31.10
2019-03-02T18:38:32.846Z,31.10
2019-03-02T18:43:36.688Z,31.10
2019-03-02T18:49:10.935Z,31.10
2019-03-02T18:54:14.201Z,31.10
2019-03-02T18:59:17.923Z,31.10
2019-03-02T19:04:24.964Z,31.10
2019-03-02T19:09:32.203Z,31.20
2019-03-02T19:14:34.230Z,31.60
2019-03-02T19:19:37.893Z,31.70
2019-03-02T19:24:41.611Z,31.90
2019-03-02T19:29:45.710Z,32.70
2019-03-02T19:34:49.835Z,32.70
2019-03-02T19:39:53.617Z,33.20
2019-03-02T19:44:57.350Z,33.70
2019-03-02T19:50:01.054Z,33.90
2019-03-02T19:55:05.061Z,34.30
2019-03-02T20:00:13.285Z,34.60
2019-03-02T20:05:17.172Z,34.80
2019-03-02T20:10:22.807Z,35.00
2019-03-02T20:15:26.741Z,34.90
2019-03-02T20:20:30.455Z,34.80
2019-03-02T20:25:36.551Z,34.80
2019-03-02T20:30:40.287Z,34.70
2019-03-02T20:35:44.011Z,34.70
2019-03-02T20:40:53.993Z,34.80
2019-03-02T20:45:57.656Z,34.70
2019-03-02T20:51:01.663Z,34.80
2019-03-02T20:56:05.667Z,34.80
2019-03-02T21:01:09.564Z,34.70
2019-03-02T21:06:13.357Z,34.80
2019-03-02T21:11:18.312Z,34.80
2019-03-02T21:16:22.070Z,34.80
2019-03-02T21:21:25.849Z,34.70
2019-03-02T21:26:29.696Z,34.80
2019-03-02T21:31:33.365Z,34.70
2019-03-02T21:36:37.114Z,34.70
2019-03-02T21:41:40.873Z,34.80
2019-03-02T21:46:44.895Z,34.70
2019-03-02T21:51:48.597Z,34.70
2019-03-02T21:56:52.353Z,34.70
2019-03-02T22:01:55.995Z,34.60
2019-03-02T22:06:59.663Z,34.60
2019-03-02T22:12:03.403Z,34.70
2019-03-02T22:17:07.048Z,34.60
2019-03-02T22:22:10.692Z,34.60
2019-03-02T22:27:14.445Z,34.60
2019-03-02T22:32:18.211Z,34.60
2019-03-02T22:37:23.321Z,34.70
2019-03-02T22:42:27.200Z,34.70
2019-03-02T22:47:31.494Z,34.70
2019-03-02T22:52:35.330Z,34.70
2019-03-02T22:57:39.040Z,35.00
2019-03-02T23:02:41.575Z,35.40
2019-03-02T23:07:45.351Z,35.70
2019-03-02T23:12:49.037Z,35.90
2019-03-02T23:17:52.833Z,35.90
2019-03-02T23:22:56.571Z,35.90
2019-03-02T23:28:00.231Z,35.90
2019-03-02T23:33:03.896Z,35.90
2019-03-02T23:38:07.580Z,35.90
2019-03-02T23:43:11.273Z,35.90
2019-03-02T23:48:17.068Z,35.90
2019-03-02T23:53:20.785Z,35.90
2019-03-02T23:58:24.543Z,35.80
